createdAt,value
2023-02-16T00:01:54.606Z,3.03
2023-02-16T00:04:30.062Z,2.94
2023-02-16T00:06:57.664Z,2.87
2023-02-16T00:09:24.890Z,2.90
2023-02-16T00:12:11.673Z,2.80
2023-02-16T00:14:39.698Z,2.81
2023-02-16T00:17:06.467Z,2.76
2023-02-16T00:19:42.334Z,2.67
2023-02-16T00:22:11.362Z,2.71
2023-02-16T00:24:37.800Z,2.82
2023-02-16T00:27:12.771Z,2.80
2023-02-16T00:29:39.348Z,2.79
2023-02-16T00:32:06.387Z,2.74
2023-02-16T00:34:41.419Z,2.81
2023-02-16T00:37:12.966Z,2.81
2023-02-16T00:39:41.445Z,2.80
2023-02-16T00:42:17.424Z,2.83
2023-02-16T00:44:46.945Z,2.83
2023-02-16T00:47:30.481Z,2.72
2023-02-16T00:49:57.238Z,2.74
2023-02-16T00:52:32.125Z,2.73
2023-02-16T00:55:00.587Z,2.78
2023-02-16T00:57:33.316Z,2.92
2023-02-16T01:00:11.601Z,2.93
2023-02-16T01:02:38.116Z,2.87
2023-02-16T01:05:04.840Z,2.93
2023-02-16T01:07:49.798Z,3.01
2023-02-16T01:10:37.020Z,2.86
2023-02-16T01:13:03.832Z,2.76
2023-02-16T01:15:30.344Z,2.79
2023-02-16T01:17:56.852Z,2.77
2023-02-16T01:20:25.670Z,2.80
2023-02-16T01:22:52.251Z,2.79
2023-02-16T01:25:18.940Z,2.77
2023-02-16T01:27:48.528Z,2.82
2023-02-16T01:30:19.476Z,2.97
2023-02-16T01:32:51.590Z,3.06
2023-02-16T01:35:38.446Z,3.13
2023-02-16T01:38:04.990Z,3.15
2023-02-16T01:40:34.206Z,3.12
2023-02-16T01:43:21.239Z,2.98
2023-02-16T01:45:55.491Z,2.79
2023-02-16T01:48:27.582Z,2.65
2023-02-16T01:51:21.878Z,2.77
2023-02-16T01:54:27.365Z,2.98
2023-02-16T01:57:12.379Z,3.08
2023-02-16T01:59:44.579Z,3.14
2023-02-16T02:02:23.202Z,3.15
2023-02-16T02:05:19.232Z,3.10
2023-02-16T02:07:57.838Z,3.01
2023-02-16T02:10:40.754Z,2.94
2023-02-16T02:13:10.708Z,2.78
2023-02-16T02:15:37.103Z,2.75
2023-02-16T02:18:03.897Z,2.92
2023-02-16T02:21:22.905Z,3.06
2023-02-16T02:23:58.379Z,3.04
2023-02-16T02:26:52.483Z,2.93
2023-02-16T02:29:30.771Z,2.97
2023-02-16T02:32:01.870Z,2.92
2023-02-16T02:35:09.787Z,2.92
2023-02-16T02:37:54.420Z,2.88
2023-02-16T02:40:47.274Z,2.96
2023-02-16T02:43:24.680Z,2.92
2023-02-16T02:45:56.414Z,2.88
2023-02-16T02:48:23.075Z,2.98
2023-02-16T02:51:12.806Z,2.91
2023-02-16T02:53:45.259Z,2.90
2023-02-16T02:56:35.844Z,2.87
2023-02-16T02:59:25.972Z,2.85
2023-02-16T03:01:58.360Z,2.84
2023-02-16T03:04:30.564Z,2.74
2023-02-16T03:06:58.938Z,2.75
2023-02-16T03:09:25.528Z,2.65
2023-02-16T03:12:12.795Z,2.65
2023-02-16T03:14:54.482Z,2.72
2023-02-16T03:17:44.711Z,2.84
2023-02-16T03:20:33.511Z,2.87
2023-02-16T03:23:21.625Z,2.72
2023-02-16T03:26:07.126Z,2.54
2023-02-16T03:28:55.512Z,2.50
2023-02-16T03:31:29.541Z,2.41
2023-02-16T03:33:56.823Z,2.36
2023-02-16T03:36:29.568Z,2.23
2023-02-16T03:38:57.082Z,2.17
2023-02-16T03:41:24.887Z,2.27
2023-02-16T03:43:51.653Z,2.18
2023-02-16T03:46:18.431Z,2.20
2023-02-16T03:48:44.884Z,2.14
2023-02-16T03:51:11.396Z,2.13
2023-02-16T03:53:37.800Z,2.17
2023-02-16T03:56:04.306Z,2.31
2023-02-16T03:58:30.747Z,2.32
2023-02-16T04:00:58.909Z,2.33
2023-02-16T04:03:26.333Z,2.31
2023-02-16T04:05:53.642Z,2.28
2023-02-16T04:08:20.145Z,2.32
2023-02-16T04:10:46.575Z,2.37
2023-02-16T04:13:12.994Z,2.42
2023-02-16T04:15:39.766Z,2.36
2023-02-16T04:18:06.198Z,2.26
2023-02-16T04:20:34.608Z,2.20
2023-02-16T04:23:02.128Z,2.28
2023-02-16T04:25:29.125Z,2.37
2023-02-16T04:27:56.163Z,2.41
2023-02-16T04:30:30.035Z,2.37
2023-02-16T04:32:57.061Z,2.41
2023-02-16T04:35:23.460Z,2.43
2023-02-16T04:37:49.916Z,2.41
2023-02-16T04:40:19.709Z,2.26
2023-02-16T04:42:46.639Z,2.24
2023-02-16T04:45:13.289Z,2.22
2023-02-16T04:47:40.093Z,2.28
2023-02-16T04:50:07.236Z,2.27
2023-02-16T04:52:34.343Z,2.19
2023-02-16T04:55:00.918Z,2.23
2023-02-16T04:57:27.445Z,2.26
2023-02-16T04:59:53.855Z,2.19
2023-02-16T05:02:20.311Z,2.24
2023-02-16T05:04:46.780Z,2.21
2023-02-16T05:07:13.316Z,2.20
2023-02-16T05:09:40.027Z,2.17
2023-02-16T05:12:25.387Z,2.13
2023-02-16T05:14:51.972Z,2.11
2023-02-16T05:17:21.719Z,2.07
2023-02-16T05:19:51.210Z,2.05
2023-02-16T05:22:18.407Z,2.00
2023-02-16T05:24:45.456Z,2.03
2023-02-16T05:27:17.628Z,2.04
2023-02-16T05:29:44.099Z,2.04
2023-02-16T05:32:10.654Z,2.08
2023-02-16T05:34:37.400Z,2.05
2023-02-16T05:37:03.984Z,2.17
2023-02-16T05:39:30.588Z,2.11
2023-02-16T05:41:57.070Z,2.09
2023-02-16T05:44:23.740Z,2.08
2023-02-16T05:46:50.244Z,2.19
2023-02-16T05:49:17.981Z,2.16
2023-02-16T05:51:44.724Z,2.21
2023-02-16T05:54:17.039Z,2.25
2023-02-16T05:56:48.587Z,2.23
2023-02-16T05:59:16.047Z,2.31
2023-02-16T06:01:43.909Z,2.37
2023-02-16T06:04:12.491Z,2.42
2023-02-16T06:06:39.298Z,2.50
2023-02-16T06:09:08.255Z,2.58
2023-02-16T06:11:37.868Z,2.67
2023-02-16T06:14:10.138Z,2.73
2023-02-16T06:16:38.419Z,2.78
2023-02-16T06:19:05.615Z,2.89
2023-02-16T06:21:32.438Z,2.96
2023-02-16T06:23:59.294Z,2.96
2023-02-16T06:26:26.532Z,3.08
2023-02-16T06:28:53.587Z,3.14
2023-02-16T06:31:20.717Z,3.07
2023-02-16T06:33:47.907Z,3.16
2023-02-16T06:36:15.144Z,3.16
2023-02-16T06:38:41.606Z,3.14
2023-02-16T06:41:08.356Z,3.09
2023-02-16T06:43:35.032Z,3.14
2023-02-16T06:46:01.647Z,3.10
2023-02-16T06:48:28.201Z,3.09
2023-02-16T06:50:54.996Z,3.12
2023-02-16T06:53:21.626Z,3.23
2023-02-16T06:55:50.807Z,3.21
2023-02-16T06:58:17.228Z,3.27
2023-02-16T07:00:43.811Z,3.30
2023-02-16T07:03:10.584Z,3.34
2023-02-16T07:05:37.823Z,3.39
2023-02-16T07:08:04.590Z,3.43
2023-02-16T07:10:47.502Z,3.57
2023-02-16T07:13:16.007Z,3.61
2023-02-16T07:15:42.454Z,3.71
2023-02-16T07:18:08.868Z,3.62
2023-02-16T07:20:35.585Z,3.71
2023-02-16T07:23:01.977Z,3.72
2023-02-16T07:25:28.678Z,3.67
2023-02-16T07:27:55.306Z,3.72
2023-02-16T07:30:22.197Z,3.68
2023-02-16T07:32:48.638Z,3.75
2023-02-16T07:35:15.092Z,3.83
2023-02-16T07:37:41.884Z,3.89
2023-02-16T07:40:08.821Z,3.96
2023-02-16T07:42:35.295Z,3.94
2023-02-16T07:45:01.766Z,3.93
2023-02-16T07:47:28.201Z,4.01
2023-02-16T07:49:54.678Z,3.96
2023-02-16T07:52:21.142Z,4.14
2023-02-16T07:54:47.599Z,4.13
2023-02-16T07:57:14.116Z,4.13
2023-02-16T07:59:40.986Z,4.19
2023-02-16T08:02:07.570Z,4.15
2023-02-16T08:04:34.456Z,4.22
2023-02-16T08:07:00.990Z,4.20
2023-02-16T08:09:27.456Z,4.33
2023-02-16T08:11:53.914Z,4.34
2023-02-16T08:14:20.287Z,4.37
2023-02-16T08:16:46.957Z,4.53
2023-02-16T08:19:13.893Z,4.57
2023-02-16T08:21:41.970Z,4.56
2023-02-16T08:24:13.074Z,4.57
2023-02-16T08:26:41.435Z,4.55
2023-02-16T08:29:15.334Z,4.74
2023-02-16T08:31:42.425Z,4.77
2023-02-16T08:34:10.040Z,4.91
2023-02-16T08:36:38.510Z,4.82
2023-02-16T08:39:09.295Z,4.68
2023-02-16T08:41:37.273Z,4.62
2023-02-16T08:44:05.714Z,4.44
2023-02-16T08:46:34.266Z,4.48
2023-02-16T08:49:01.051Z,4.44
2023-02-16T08:51:30.473Z,4.44
2023-02-16T08:53:58.927Z,4.58
2023-02-16T08:56:26.377Z,4.69
2023-02-16T08:58:53.027Z,4.83
2023-02-16T09:01:19.646Z,5.05
2023-02-16T09:03:46.775Z,5.36
2023-02-16T09:06:15.642Z,5.56
2023-02-16T09:08:42.315Z,5.71
2023-02-16T09:11:13.413Z,5.82
2023-02-16T09:13:43.429Z,6.00
2023-02-16T09:16:13.129Z,5.93
2023-02-16T09:18:40.206Z,5.96
2023-02-16T09:21:11.420Z,6.07
2023-02-16T09:23:40.184Z,6.02
2023-02-16T09:26:09.580Z,6.01
2023-02-16T09:28:40.187Z,5.88
2023-02-16T09:31:15.052Z,5.97
2023-02-16T09:33:43.985Z,5.68
2023-02-16T09:36:11.936Z,5.77
2023-02-16T09:38:43.110Z,5.91
2023-02-16T09:41:32.131Z,5.84
2023-02-16T09:44:18.214Z,5.84
2023-02-16T09:46:45.774Z,5.96
2023-02-16T09:49:38.612Z,5.74
2023-02-16T09:52:17.386Z,5.79
2023-02-16T09:54:53.754Z,5.94
2023-02-16T09:57:24.490Z,6.04
2023-02-16T10:00:16.249Z,6.00
2023-02-16T10:03:23.704Z,6.19
2023-02-16T10:06:02.591Z,6.07
2023-02-16T10:08:37.230Z,6.08
2023-02-16T10:11:32.796Z,6.21
2023-02-16T10:14:08.790Z,6.28
2023-02-16T10:16:42.754Z,6.27
2023-02-16T10:19:26.194Z,6.13
2023-02-16T10:21:58.725Z,6.12
2023-02-16T10:24:29.354Z,6.09
2023-02-16T10:27:07.458Z,5.96
2023-02-16T10:29:33.998Z,6.07
2023-02-16T10:32:39.283Z,6.15
2023-02-16T10:35:17.259Z,6.22
2023-02-16T10:38:24.771Z,6.28
2023-02-16T10:40:57.815Z,6.34
2023-02-16T10:43:34.098Z,6.33
2023-02-16T10:46:01.790Z,6.47
2023-02-16T10:48:28.715Z,6.59
2023-02-16T10:51:16.626Z,6.52
2023-02-16T10:53:47.748Z,6.50
2023-02-16T10:56:42.050Z,6.58
2023-02-16T10:59:16.628Z,6.52
2023-02-16T11:01:47.020Z,6.49
2023-02-16T11:04:40.293Z,6.43
2023-02-16T11:07:13.049Z,6.58
2023-02-16T11:09:41.048Z,6.60
2023-02-16T11:12:16.778Z,6.67
2023-02-16T11:14:50.459Z,6.76
2023-02-16T11:17:19.768Z,6.66
2023-02-16T11:20:01.714Z,6.79
2023-02-16T11:22:38.043Z,6.68
2023-02-16T11:25:18.737Z,6.77
2023-02-16T11:27:58.450Z,6.68
2023-02-16T11:30:41.321Z,6.86
2023-02-16T11:33:23.508Z,6.93
2023-02-16T11:35:50.185Z,7.19
2023-02-16T11:38:55.977Z,7.22
2023-02-16T11:41:25.077Z,7.17
2023-02-16T11:43:52.396Z,7.12
2023-02-16T11:46:21.450Z,7.12
2023-02-16T11:48:48.320Z,7.15
2023-02-16T11:51:16.099Z,7.04
2023-02-16T11:53:44.919Z,7.25
2023-02-16T11:56:27.695Z,6.97
2023-02-16T11:59:24.299Z,6.83
2023-02-16T12:01:56.476Z,6.80
2023-02-16T12:04:38.288Z,6.62
2023-02-16T12:07:08.442Z,6.69
2023-02-16T12:09:40.728Z,6.79
2023-02-16T12:12:20.641Z,6.82
2023-02-16T12:15:19.331Z,6.77
2023-02-16T12:18:37.714Z,6.89
2023-02-16T12:21:13.675Z,6.90
2023-02-16T12:23:53.541Z,6.88
2023-02-16T12:26:26.725Z,6.94
2023-02-16T12:29:20.583Z,6.83
2023-02-16T12:31:59.007Z,6.79
2023-02-16T12:34:31.162Z,6.84
2023-02-16T12:37:06.934Z,6.96
2023-02-16T12:40:33.682Z,6.90
2023-02-16T12:43:24.084Z,6.90
2023-02-16T12:45:54.143Z,6.78
2023-02-16T12:48:40.341Z,6.84
2023-02-16T12:51:12.561Z,6.93
2023-02-16T12:53:51.993Z,7.01
2023-02-16T12:56:28.356Z,7.06
2023-02-16T12:59:05.249Z,6.78
2023-02-16T13:01:35.654Z,6.85
2023-02-16T13:04:12.322Z,7.00
2023-02-16T13:07:17.910Z,7.12
2023-02-16T13:09:54.826Z,7.11
2023-02-16T13:12:39.666Z,7.05
2023-02-16T13:15:16.961Z,7.09
2023-02-16T13:17:47.864Z,7.14
2023-02-16T13:20:16.768Z,6.99
2023-02-16T13:23:14.300Z,7.10
2023-02-16T13:26:10.756Z,7.10
2023-02-16T13:29:10.668Z,7.10
2023-02-16T13:31:47.096Z,7.12
2023-02-16T13:34:35.677Z,7.13
2023-02-16T13:37:17.071Z,7.15
2023-02-16T13:40:02.061Z,7.01
2023-02-16T13:42:44.815Z,7.20
2023-02-16T13:45:33.913Z,7.38
2023-02-16T13:48:01.391Z,7.42
2023-02-16T13:50:34.170Z,7.44
2023-02-16T13:53:21.003Z,7.48
2023-02-16T13:55:49.759Z,7.43
2023-02-16T13:58:16.248Z,7.52
2023-02-16T14:00:48.287Z,7.47
2023-02-16T14:03:20.095Z,7.44
2023-02-16T14:06:08.025Z,7.47
2023-02-16T14:08:34.649Z,7.50
2023-02-16T14:11:04.137Z,7.39
2023-02-16T14:13:36.709Z,7.39
2023-02-16T14:16:11.097Z,7.44
2023-02-16T14:18:59.066Z,7.47
2023-02-16T14:21:35.996Z,7.46
2023-02-16T14:24:06.306Z,7.60
2023-02-16T14:26:52.465Z,7.54
2023-02-16T14:29:24.225Z,7.54
2023-02-16T14:32:05.829Z,7.64
2023-02-16T14:34:41.168Z,7.71
2023-02-16T14:37:27.777Z,7.62
2023-02-16T14:40:07.806Z,7.78
2023-02-16T14:42:35.979Z,7.80
2023-02-16T14:45:30.506Z,7.80
2023-02-16T14:48:17.992Z,7.81
2023-02-16T14:51:08.402Z,7.72
2023-02-16T14:53:57.864Z,7.73
2023-02-16T14:56:42.809Z,7.52
2023-02-16T14:59:30.372Z,7.55
2023-02-16T15:01:56.834Z,7.63
2023-02-16T15:04:29.213Z,7.49
2023-02-16T15:06:57.175Z,7.48
2023-02-16T15:09:34.849Z,7.46
2023-02-16T15:12:23.807Z,7.41
2023-02-16T15:14:58.410Z,7.44
2023-02-16T15:17:30.202Z,7.31
2023-02-16T15:20:04.050Z,7.40
2023-02-16T15:22:30.836Z,7.54
2023-02-16T15:25:08.158Z,7.48
2023-02-16T15:27:34.954Z,7.51
2023-02-16T15:30:04.803Z,7.50
2023-02-16T15:32:32.690Z,7.38
2023-02-16T15:34:59.384Z,7.31
2023-02-16T15:37:32.906Z,7.28
2023-02-16T15:40:26.503Z,7.28
2023-02-16T15:42:55.882Z,7.22
2023-02-16T15:45:32.921Z,7.29
2023-02-16T15:48:20.570Z,7.10
2023-02-16T15:50:48.243Z,7.04
2023-02-16T15:53:22.074Z,7.03
2023-02-16T15:55:48.776Z,7.02
2023-02-16T15:58:15.994Z,6.99
2023-02-16T16:00:45.276Z,6.94
2023-02-16T16:03:18.059Z,6.93
2023-02-16T16:05:58.708Z,6.91
2023-02-16T16:08:27.339Z,6.89
2023-02-16T16:10:55.052Z,6.79
2023-02-16T16:13:25.576Z,6.79
2023-02-16T16:15:56.106Z,6.69
2023-02-16T16:18:37.460Z,6.81
2023-02-16T16:21:13.445Z,6.75
2023-02-16T16:23:41.152Z,6.76
2023-02-16T16:26:19.662Z,6.68
2023-02-16T16:28:46.423Z,6.64
2023-02-16T16:31:29.843Z,6.79
2023-02-16T16:34:03.852Z,6.75
2023-02-16T16:36:33.911Z,6.76
2023-02-16T16:39:16.799Z,6.78
2023-02-16T16:42:06.283Z,6.75
2023-02-16T16:44:41.825Z,6.77
2023-02-16T16:47:37.604Z,6.69
2023-02-16T16:50:31.155Z,6.77
2023-02-16T16:52:58.107Z,6.73
2023-02-16T16:55:26.392Z,6.68
2023-02-16T16:57:58.803Z,6.83
2023-02-16T17:00:30.694Z,6.75
2023-02-16T17:02:58.252Z,6.77
2023-02-16T17:05:24.698Z,6.87
2023-02-16T17:07:51.932Z,6.83
2023-02-16T17:10:20.898Z,6.87
2023-02-16T17:12:51.059Z,6.84
2023-02-16T17:15:41.978Z,6.83
2023-02-16T17:18:14.803Z,6.79
2023-02-16T17:20:41.867Z,6.74
2023-02-16T17:23:11.603Z,6.86
2023-02-16T17:25:38.162Z,6.85
2023-02-16T17:28:05.220Z,6.75
2023-02-16T17:30:32.593Z,6.73
2023-02-16T17:32:59.437Z,6.79
2023-02-16T17:35:26.268Z,6.76
2023-02-16T17:37:52.784Z,6.76
2023-02-16T17:40:21.765Z,6.70
2023-02-16T17:42:48.972Z,6.69
2023-02-16T17:45:19.048Z,6.63
2023-02-16T17:47:46.667Z,6.67
2023-02-16T17:50:14.663Z,6.63
2023-02-16T17:52:42.127Z,6.65
2023-02-16T17:55:09.549Z,6.56
2023-02-16T17:57:36.280Z,6.61
2023-02-16T18:00:13.027Z,6.63
2023-02-16T18:02:39.469Z,6.65
2023-02-16T18:05:06.235Z,6.66
2023-02-16T18:07:32.674Z,6.62
2023-02-16T18:09:59.172Z,6.62
2023-02-16T18:12:28.137Z,6.62
2023-02-16T18:14:54.920Z,6.63
2023-02-16T18:17:21.430Z,6.65
2023-02-16T18:19:47.855Z,6.65
2023-02-16T18:22:14.687Z,6.68
2023-02-16T18:24:42.817Z,6.70
2023-02-16T18:27:10.139Z,6.69
2023-02-16T18:29:36.622Z,6.72
2023-02-16T18:32:04.174Z,6.69
2023-02-16T18:34:32.457Z,6.71
2023-02-16T18:36:58.851Z,6.73
2023-02-16T18:39:25.275Z,6.76
2023-02-16T18:41:51.742Z,6.76
2023-02-16T18:44:18.179Z,6.79
2023-02-16T18:46:44.632Z,6.87
2023-02-16T18:49:11.064Z,6.74
2023-02-16T18:51:37.571Z,6.79
2023-02-16T18:54:04.148Z,6.90
2023-02-16T18:56:30.734Z,6.91
2023-02-16T18:58:57.202Z,6.94
2023-02-16T19:01:29.548Z,6.91
2023-02-16T19:03:56.580Z,6.88
2023-02-16T19:06:23.128Z,6.87
2023-02-16T19:08:51.376Z,6.85
2023-02-16T19:11:19.642Z,6.83
2023-02-16T19:13:47.272Z,6.87
2023-02-16T19:16:15.409Z,6.92
2023-02-16T19:18:41.924Z,6.87
2023-02-16T19:21:11.313Z,6.89
2023-02-16T19:23:37.844Z,6.72
2023-02-16T19:26:11.090Z,6.82
2023-02-16T19:28:38.809Z,6.78
2023-02-16T19:31:07.489Z,6.75
2023-02-16T19:33:34.655Z,6.71
2023-02-16T19:36:06.509Z,6.81
2023-02-16T19:38:33.310Z,6.82
2023-02-16T19:41:00.174Z,6.83
2023-02-16T19:43:26.683Z,6.83
2023-02-16T19:45:53.207Z,6.83
2023-02-16T19:48:19.672Z,6.73
2023-02-16T19:50:46.424Z,6.82
2023-02-16T19:53:12.844Z,6.71
2023-02-16T19:55:42.735Z,6.69
2023-02-16T19:58:09.262Z,6.77
2023-02-16T20:00:36.855Z,6.73
2023-02-16T20:03:04.048Z,6.78
2023-02-16T20:05:30.558Z,6.76
2023-02-16T20:07:57.134Z,6.69
2023-02-16T20:10:23.566Z,6.72
2023-02-16T20:12:50.000Z,6.71
2023-02-16T20:15:16.904Z,6.75
2023-02-16T20:17:43.374Z,6.67
2023-02-16T20:20:10.036Z,6.73
2023-02-16T20:22:36.460Z,6.68
2023-02-16T20:25:03.339Z,6.61
2023-02-16T20:27:29.896Z,6.75
2023-02-16T20:29:56.393Z,6.69
2023-02-16T20:32:27.114Z,6.64
2023-02-16T20:34:53.702Z,6.74
2023-02-16T20:37:20.215Z,6.78
2023-02-16T20:39:47.552Z,6.81
2023-02-16T20:42:13.973Z,6.81
2023-02-16T20:44:40.422Z,6.75
2023-02-16T20:47:08.093Z,6.75
2023-02-16T20:49:35.139Z,6.76
2023-02-16T20:52:01.850Z,6.74
2023-02-16T20:54:28.554Z,6.74
2023-02-16T20:56:54.987Z,6.64
2023-02-16T20:59:21.445Z,6.74
2023-02-16T21:01:50.065Z,6.68
2023-02-16T21:04:18.681Z,6.72
2023-02-16T21:06:45.597Z,6.73
2023-02-16T21:09:12.641Z,6.77
2023-02-16T21:11:40.471Z,6.68
2023-02-16T21:14:08.111Z,6.58
2023-02-16T21:16:34.743Z,6.58
2023-02-16T21:19:01.172Z,6.49
2023-02-16T21:21:27.784Z,6.53
2023-02-16T21:23:54.762Z,6.52
2023-02-16T21:26:23.316Z,6.53
2023-02-16T21:28:50.148Z,6.55
2023-02-16T21:31:22.760Z,6.60
2023-02-16T21:33:49.407Z,6.55
2023-02-16T21:36:19.352Z,6.60
2023-02-16T21:38:46.255Z,6.58
2023-02-16T21:41:24.961Z,6.63
2023-02-16T21:44:00.870Z,6.58
2023-02-16T21:46:30.445Z,6.64
2023-02-16T21:48:57.579Z,6.59
2023-02-16T21:51:28.260Z,6.60
2023-02-16T21:53:54.886Z,6.60
2023-02-16T21:56:48.003Z,6.65
2023-02-16T21:59:16.617Z,6.69
2023-02-16T22:01:46.496Z,6.61
2023-02-16T22:04:16.674Z,6.54
2023-02-16T22:06:46.093Z,6.60
2023-02-16T22:09:21.827Z,6.68
2023-02-16T22:11:49.168Z,6.64
2023-02-16T22:14:15.637Z,6.65
2023-02-16T22:16:44.617Z,6.61
2023-02-16T22:19:13.107Z,6.65
2023-02-16T22:21:41.114Z,6.61
2023-02-16T22:24:08.344Z,6.64
2023-02-16T22:26:35.891Z,6.58
2023-02-16T22:29:05.013Z,6.62
2023-02-16T22:31:31.692Z,6.60
2023-02-16T22:34:00.001Z,6.59
2023-02-16T22:36:26.706Z,6.65
2023-02-16T22:38:54.179Z,6.63
2023-02-16T22:41:21.912Z,6.62
2023-02-16T22:43:52.906Z,6.55
2023-02-16T22:46:19.414Z,6.62
2023-02-16T22:48:45.852Z,6.57
2023-02-16T22:51:14.652Z,6.52
2023-02-16T22:53:41.620Z,6.64
2023-02-16T22:56:11.869Z,6.60
2023-02-16T22:58:38.343Z,6.58
2023-02-16T23:01:11.364Z,6.52
2023-02-16T23:03:38.331Z,6.60
2023-02-16T23:06:16.771Z,6.54
2023-02-16T23:08:44.142Z,6.61
2023-02-16T23:11:11.434Z,6.49
2023-02-16T23:13:38.224Z,6.52
2023-02-16T23:16:07.791Z,6.53
2023-02-16T23:18:34.411Z,6.49
2023-02-16T23:21:06.113Z,6.50
2023-02-16T23:23:32.706Z,6.44
2023-02-16T23:25:59.174Z,6.42
2023-02-16T23:28:25.637Z,6.46
2023-02-16T23:30:52.099Z,6.46
2023-02-16T23:33:19.141Z,6.43
2023-02-16T23:35:45.524Z,6.47
2023-02-16T23:38:14.055Z,6.45
2023-02-16T23:40:41.504Z,6.44
2023-02-16T23:43:08.291Z,6.52
2023-02-16T23:45:35.379Z,6.49
2023-02-16T23:48:02.234Z,6.49
2023-02-16T23:50:28.943Z,6.51
2023-02-16T23:52:55.489Z,6.56
2023-02-16T23:55:21.919Z,6.60
2023-02-16T23:57:48.302Z,6.53
